createdAt,value
2023-02-05T00:09:30.247Z,3.92
2023-02-05T00:19:34.417Z,4.65
2023-02-05T00:29:37.207Z,5.40
2023-02-05T00:39:41.474Z,3.83
2023-02-05T00:49:44.446Z,4.70
2023-02-05T00:59:48.434Z,4.40
2023-02-05T01:09:51.147Z,4.38
2023-02-05T01:19:55.269Z,5.32
2023-02-05T01:29:57.971Z,4.68
2023-02-05T01:40:02.067Z,5.80
2023-02-05T01:50:04.809Z,5.00
2023-02-05T02:00:11.270Z,5.32
2023-02-05T02:10:16.299Z,5.05
2023-02-05T02:20:23.821Z,4.75
2023-02-05T02:30:33.450Z,5.53
2023-02-05T02:40:41.484Z,5.25
2023-02-05T02:50:49.412Z,5.57
2023-02-05T03:00:54.204Z,5.22
2023-02-05T03:11:03.608Z,5.38
2023-02-05T03:21:10.680Z,5.38
2023-02-05T03:31:19.688Z,6.28
2023-02-05T03:41:52.932Z,5.78
2023-02-05T03:52:01.969Z,6.32
2023-02-05T04:02:05.612Z,6.22
2023-02-05T04:12:10.940Z,6.75
2023-02-05T04:22:13.564Z,6.90
2023-02-05T04:32:17.626Z,6.85
2023-02-05T04:42:20.404Z,6.72
2023-02-05T04:52:24.593Z,7.30
2023-02-05T05:02:27.470Z,7.05
2023-02-05T05:12:31.454Z,6.78
2023-02-05T05:22:34.521Z,6.40
2023-02-05T05:32:38.486Z,7.72
2023-02-05T05:42:58.436Z,8.00
2023-02-05T05:53:02.401Z,7.68
2023-02-05T06:03:05.439Z,8.45
2023-02-05T06:13:09.404Z,8.73
2023-02-05T06:23:12.111Z,8.32
2023-02-05T06:33:16.185Z,9.65
2023-02-05T06:43:18.833Z,9.60
2023-02-05T06:53:22.869Z,9.30
2023-02-05T07:03:25.497Z,8.45
2023-02-05T07:13:29.618Z,9.75
2023-02-05T07:23:32.492Z,10.48
2023-02-05T07:33:36.983Z,9.68
2023-02-05T07:43:40.426Z,10.30
2023-02-05T07:53:44.442Z,10.85
2023-02-05T08:03:47.085Z,11.38
2023-02-05T08:13:51.331Z,11.05
2023-02-05T08:23:53.953Z,11.05
2023-02-05T08:33:59.974Z,11.95
2023-02-05T08:44:02.624Z,13.35
2023-02-05T08:54:09.203Z,14.05
2023-02-05T09:04:14.152Z,13.05
2023-02-05T09:14:18.243Z,11.85
2023-02-05T09:24:20.903Z,11.68
2023-02-05T09:34:24.857Z,12.25
2023-02-05T09:44:43.455Z,9.80
2023-02-05T09:54:53.042Z,10.90
2023-02-05T10:04:55.941Z,10.82
2023-02-05T10:15:12.601Z,9.40
2023-02-05T10:25:50.416Z,7.22
2023-02-05T10:36:02.095Z,8.10
2023-02-05T10:46:06.422Z,5.68
2023-02-05T10:56:17.609Z,2.50
2023-02-05T11:06:22.379Z,1.25
2023-02-05T11:16:36.583Z,1.70
2023-02-05T11:26:39.194Z,2.05
2023-02-05T11:36:50.768Z,2.95
2023-02-05T11:46:56.872Z,2.13
2023-02-05T11:57:07.446Z,1.83
2023-02-05T12:17:42.990Z,2.90
2023-02-05T12:27:58.270Z,2.40
2023-02-05T12:38:13.494Z,3.15
2023-02-05T12:48:40.244Z,2.65
2023-02-05T12:58:47.488Z,1.92
2023-02-05T13:08:53.118Z,2.33
2023-02-05T13:19:01.966Z,1.77
2023-02-05T13:29:10.252Z,2.30
2023-02-05T13:39:38.281Z,2.40
2023-02-05T13:50:06.842Z,2.17
2023-02-05T14:00:14.598Z,2.22
2023-02-05T14:10:28.854Z,2.47
2023-02-05T14:20:38.172Z,2.05
2023-02-05T14:30:53.128Z,2.88
2023-02-05T14:41:09.129Z,3.20
2023-02-05T14:51:22.484Z,2.78
2023-02-05T15:01:44.440Z,3.08
2023-02-05T15:12:04.562Z,2.75
2023-02-05T15:22:22.471Z,2.27
2023-02-05T15:32:29.655Z,3.45
2023-02-05T15:42:38.185Z,2.38
2023-02-05T15:52:41.252Z,2.47
2023-02-05T16:02:54.682Z,2.42
2023-02-05T16:13:01.805Z,2.22
2023-02-05T16:23:08.796Z,1.73
2023-02-05T16:33:23.047Z,2.65
2023-02-05T16:43:32.449Z,3.13
2023-02-05T16:53:38.150Z,2.50
2023-02-05T17:03:48.983Z,3.67
2023-02-05T17:13:51.729Z,2.00
2023-02-05T17:23:59.148Z,3.33
2023-02-05T17:34:02.205Z,2.50
2023-02-05T17:44:06.989Z,2.38
2023-02-05T17:54:13.598Z,2.20
2023-02-05T18:04:18.513Z,3.15
2023-02-05T18:14:22.316Z,2.53
2023-02-05T18:24:26.783Z,2.92
2023-02-05T18:34:29.425Z,2.88
2023-02-05T18:44:33.627Z,2.63
2023-02-05T18:54:36.266Z,3.83
2023-02-05T19:04:41.101Z,3.40
2023-02-05T19:14:43.795Z,4.10
2023-02-05T19:24:47.756Z,3.42
2023-02-05T19:34:50.336Z,2.97
2023-02-05T19:44:54.305Z,3.40
2023-02-05T19:54:56.918Z,4.03
2023-02-05T20:05:00.961Z,3.45
2023-02-05T20:15:04.009Z,3.53
2023-02-05T20:25:08.761Z,3.75
2023-02-05T20:35:12.231Z,2.72
2023-02-05T20:45:17.244Z,3.20
2023-02-05T20:55:20.329Z,3.17
2023-02-05T21:05:26.420Z,2.30
2023-02-05T21:15:29.221Z,3.45
2023-02-05T21:25:36.214Z,2.80
2023-02-05T21:35:40.370Z,2.65
2023-02-05T21:45:44.464Z,2.63
2023-02-05T22:06:44.119Z,1.70
2023-02-05T22:16:53.692Z,3.70
2023-02-05T22:49:43.319Z,2.85
2023-02-05T23:12:11.728Z,3.70
2023-02-05T23:22:16.207Z,2.88
2023-02-05T23:43:47.228Z,2.95
2023-02-05T23:54:27.882Z,3.17
